DAOO/ORN METAR and TAF weather

Enter ICAO airport designator
Station Type Date Time Source
DAOO METAR 2020/07/02 21:00 UTC NOAA

DAOO 022100Z 24011KT 9999 FEW033 SCT100 27/14 Q1015


Station Type Date Time Source
DAOO Decoded METAR 2020/07/02 21:00 UTC NOAA

Oran / Es Senia, Algeria (DAOO) 35-38N 000-36W 90M
Jul 02, 2020 - 05:00 PM EDT / 2020.07.02 2100 UTC
Wind: from the WSW (240 degrees) at 13 MPH (11 KT):0
Visibility: greater than 7 mile(s):0
Sky conditions: partly cloudy
Temperature: 80 F (27 C)
Dew Point: 57 F (14 C)
Relative Humidity: 44%
Pressure (altimeter): 29.97 in. Hg (1015 hPa)
ob: DAOO 022100Z 24011KT 9999 FEW033 SCT100 27/14 Q1015
cycle: 21

Station Type Date Time Source
DAOO TAF 2020/07/02 18:51 UTC NOAA

TAF DAOO 021700Z 0218/0318 24015KT 9999 FEW026
BECMG 0222/0224 24005KT
BECMG 0308/0310 26015KT

Example: see airport list